createdAt,value
2022-12-18T00:00:22.459Z,9.462955
2022-12-18T00:01:22.523Z,9.462946
2022-12-18T00:02:22.425Z,9.463018
2022-12-18T00:03:22.535Z,9.462935
2022-12-18T00:04:22.634Z,9.463152
2022-12-18T00:05:22.425Z,9.463202
2022-12-18T00:06:22.412Z,9.463248
2022-12-18T00:07:22.403Z,9.463191
2022-12-18T00:08:22.410Z,9.463193
2022-12-18T00:09:22.412Z,9.462939
2022-12-18T00:10:22.375Z,9.463010
2022-12-18T00:11:22.431Z,9.463060
2022-12-18T00:12:22.377Z,9.462766
2022-12-18T00:13:22.375Z,9.462436
2022-12-18T00:14:22.379Z,9.462535
2022-12-18T00:15:22.375Z,9.462452
2022-12-18T00:16:22.490Z,9.462688
2022-12-18T00:17:22.362Z,9.462831
2022-12-18T00:18:22.346Z,9.462872
2022-12-18T00:19:22.354Z,9.462909
2022-12-18T00:20:22.338Z,9.462922
2022-12-18T00:21:22.326Z,9.463053
2022-12-18T00:22:22.340Z,9.462888
2022-12-18T00:23:22.513Z,9.462827
2022-12-18T00:24:22.316Z,9.462971
2022-12-18T00:25:22.326Z,9.463042
2022-12-18T00:26:22.301Z,9.463156
2022-12-18T00:27:22.316Z,9.462877
2022-12-18T00:28:22.283Z,9.462958
2022-12-18T00:29:22.291Z,9.463082
2022-12-18T00:30:22.298Z,9.463149
2022-12-18T00:31:22.335Z,9.462914
2022-12-18T00:32:22.304Z,9.462887
2022-12-18T00:33:22.289Z,9.462869
2022-12-18T00:34:22.252Z,9.462993
2022-12-18T00:35:22.294Z,9.463112
2022-12-18T00:36:22.244Z,9.462995
2022-12-18T00:37:22.251Z,9.462973
2022-12-18T00:38:22.241Z,9.463024
2022-12-18T00:39:22.259Z,9.463018
2022-12-18T00:40:22.220Z,9.463103
2022-12-18T00:41:29.289Z,9.463162
2022-12-18T00:42:22.235Z,9.462966
2022-12-18T00:43:22.213Z,9.462946
2022-12-18T00:44:22.228Z,9.463009
2022-12-18T00:45:22.341Z,9.463130
2022-12-18T00:46:22.203Z,9.463060
2022-12-18T00:47:22.200Z,9.463120
2022-12-18T00:48:22.244Z,9.463111
2022-12-18T00:49:22.191Z,9.463213
2022-12-18T00:50:22.199Z,9.463058
2022-12-18T00:51:22.165Z,9.463371
2022-12-18T00:52:22.175Z,9.463069
2022-12-18T00:53:22.186Z,9.463067
2022-12-18T00:54:22.177Z,9.463153
2022-12-18T00:55:22.153Z,9.462956
2022-12-18T00:56:22.174Z,9.463010
2022-12-18T00:57:22.132Z,9.463075
2022-12-18T00:58:22.143Z,9.463121
2022-12-18T00:59:22.142Z,9.463062
2022-12-18T01:00:22.126Z,9.462989
2022-12-18T01:01:22.284Z,9.462961
2022-12-18T01:02:22.247Z,9.462993
2022-12-18T01:03:22.111Z,9.462939
2022-12-18T01:04:22.144Z,9.463023
2022-12-18T01:05:22.094Z,9.463017
2022-12-18T01:06:22.098Z,9.463034
2022-12-18T01:07:22.109Z,9.462980
2022-12-18T01:08:22.128Z,9.463051
2022-12-18T01:09:22.074Z,9.462936
2022-12-18T01:10:22.076Z,9.462924
2022-12-18T01:11:22.076Z,9.462840
2022-12-18T01:12:22.065Z,9.462837
2022-12-18T01:13:22.065Z,9.462879
2022-12-18T01:14:22.097Z,9.462939
2022-12-18T01:15:22.038Z,9.462959
2022-12-18T01:16:22.112Z,9.462983
2022-12-18T01:17:22.029Z,9.463030
2022-12-18T01:18:22.050Z,9.462994
2022-12-18T01:19:22.086Z,9.463011
2022-12-18T01:20:22.063Z,9.463049
2022-12-18T01:21:22.028Z,9.463052
2022-12-18T01:22:22.023Z,9.462987
2022-12-18T01:23:21.996Z,9.462996
2022-12-18T01:24:22.022Z,9.462993
2022-12-18T01:25:21.987Z,9.462976
2022-12-18T01:26:22.003Z,9.462961
2022-12-18T01:27:22.032Z,9.462968
2022-12-18T01:28:21.980Z,9.462973
2022-12-18T01:29:21.980Z,9.462965
2022-12-18T01:30:21.986Z,9.462927
2022-12-18T01:31:22.018Z,9.462927
2022-12-18T01:32:21.980Z,9.462951
2022-12-18T01:33:21.952Z,9.462965
2022-12-18T01:34:21.957Z,9.462965
2022-12-18T01:35:21.938Z,9.462959
2022-12-18T01:36:21.938Z,9.462970
2022-12-18T01:37:21.932Z,9.462908
2022-12-18T01:38:21.943Z,9.462965
2022-12-18T01:39:21.908Z,9.462927
2022-12-18T01:40:21.904Z,9.462980
2022-12-18T01:41:21.906Z,9.462978
2022-12-18T01:42:21.917Z,9.462871
2022-12-18T01:43:21.885Z,9.462930
2022-12-18T01:44:21.965Z,9.462926
2022-12-18T01:45:21.881Z,9.462929
2022-12-18T01:46:21.966Z,9.462948
2022-12-18T01:47:21.875Z,9.462959
2022-12-18T01:48:21.862Z,9.462916
2022-12-18T01:49:21.861Z,9.462900
2022-12-18T01:50:21.881Z,9.462979
2022-12-18T01:51:21.923Z,9.463015
2022-12-18T01:52:21.942Z,9.462975
2022-12-18T01:53:21.830Z,9.462961
2022-12-18T01:54:21.857Z,9.462969
2022-12-18T01:55:21.849Z,9.462963
2022-12-18T01:56:21.841Z,9.462971
2022-12-18T01:57:21.811Z,9.462977
2022-12-18T01:58:21.814Z,9.462995
2022-12-18T01:59:21.809Z,9.462968
2022-12-18T02:00:21.803Z,9.463049
2022-12-18T02:01:21.928Z,9.462995
2022-12-18T02:02:43.862Z,9.462990
2022-12-18T02:10:48.176Z,9.462922
2022-12-18T02:11:48.359Z,9.462931
2022-12-18T02:12:48.292Z,9.462917
2022-12-18T02:13:48.160Z,9.462959
2022-12-18T02:14:48.130Z,9.462942
2022-12-18T02:15:48.131Z,9.462955
2022-12-18T02:16:48.237Z,9.462942
2022-12-18T02:17:48.102Z,9.462945
2022-12-18T02:18:48.273Z,9.462946
2022-12-18T02:19:48.104Z,9.462948
2022-12-18T02:21:11.850Z,9.462949
2022-12-18T02:21:48.116Z,9.462917
2022-12-18T02:22:48.084Z,9.462917
2022-12-18T02:23:49.097Z,9.462924
2022-12-18T02:24:48.079Z,9.462912
2022-12-18T02:25:48.070Z,9.462904
2022-12-18T02:26:48.066Z,9.462915
2022-12-18T02:27:48.051Z,9.462933
2022-12-18T02:28:48.163Z,9.462931
2022-12-18T02:29:52.921Z,9.462949
2022-12-18T02:30:49.086Z,9.462897
2022-12-18T02:31:48.061Z,9.462916
2022-12-18T02:32:48.033Z,9.462915
2022-12-18T02:33:48.023Z,9.462894
2022-12-18T02:34:48.299Z,9.462891
2022-12-18T02:35:48.026Z,9.462968
2022-12-18T02:36:48.009Z,9.462928
2022-12-18T02:37:47.996Z,9.462923
2022-12-18T02:38:48.016Z,9.462940
2022-12-18T02:39:47.990Z,9.462932
2022-12-18T02:40:48.003Z,9.463001
2022-12-18T02:41:47.989Z,9.462985
2022-12-18T02:42:47.961Z,9.462997
2022-12-18T02:43:47.976Z,9.463011
2022-12-18T02:44:48.093Z,9.462994
2022-12-18T02:45:48.164Z,9.462949
2022-12-18T02:46:47.960Z,9.462961
2022-12-18T02:47:47.944Z,9.462936
2022-12-18T02:48:47.934Z,9.462959
2022-12-18T02:49:47.948Z,9.462945
2022-12-18T02:50:47.933Z,9.462974
2022-12-18T02:51:47.932Z,9.462974
2022-12-18T02:52:47.917Z,9.462975
2022-12-18T02:53:47.909Z,9.462957
2022-12-18T02:54:47.925Z,9.462959
2022-12-18T02:55:47.914Z,9.462947
2022-12-18T02:56:47.884Z,9.462973
2022-12-18T02:57:47.900Z,9.462996
2022-12-18T03:05:14.284Z,9.462987
2022-12-18T03:06:14.678Z,9.462973
2022-12-18T03:07:14.253Z,9.462944
2022-12-18T03:08:14.240Z,9.462952
2022-12-18T03:09:14.264Z,9.462950
2022-12-18T03:10:14.217Z,9.463001
2022-12-18T03:11:14.231Z,9.462946
2022-12-18T03:12:14.217Z,9.462988
2022-12-18T03:13:14.212Z,9.463043
2022-12-18T03:14:14.260Z,9.463040
2022-12-18T03:15:17.639Z,9.462918
2022-12-18T03:16:14.302Z,9.462905
2022-12-18T03:17:14.202Z,9.462938
2022-12-18T03:18:14.172Z,9.462947
2022-12-18T03:19:14.267Z,9.462977
2022-12-18T03:20:14.187Z,9.463025
2022-12-18T03:21:14.168Z,9.463041
2022-12-18T03:22:14.167Z,9.463025
2022-12-18T03:23:14.153Z,9.463001
2022-12-18T03:24:14.150Z,9.463008
2022-12-18T03:25:14.161Z,9.462961
2022-12-18T03:26:14.142Z,9.463001
2022-12-18T03:27:14.175Z,9.463009
2022-12-18T03:28:14.132Z,9.463017
2022-12-18T03:29:14.176Z,9.463038
2022-12-18T03:30:14.128Z,9.463049
2022-12-18T03:31:14.313Z,9.463033
2022-12-18T03:32:14.233Z,9.463028
2022-12-18T03:33:14.139Z,9.463017
2022-12-18T03:34:14.121Z,9.463020
2022-12-18T03:35:14.182Z,9.463050
2022-12-18T03:36:14.092Z,9.463053
2022-12-18T03:37:14.082Z,9.463063
2022-12-18T03:38:14.077Z,9.463082
2022-12-18T03:39:14.074Z,9.463063
2022-12-18T03:40:14.069Z,9.463077
2022-12-18T03:41:14.076Z,9.463041
2022-12-18T03:42:14.059Z,9.463026
2022-12-18T03:43:14.048Z,9.463017
2022-12-18T03:44:14.962Z,9.463034
2022-12-18T03:45:14.057Z,9.463035
2022-12-18T03:46:14.077Z,9.463020
2022-12-18T03:47:14.048Z,9.463013
2022-12-18T03:48:14.144Z,9.463013
2022-12-18T03:49:14.014Z,9.463042
2022-12-18T03:50:15.002Z,9.463036
2022-12-18T03:51:14.014Z,9.463054
2022-12-18T03:52:14.003Z,9.463051
2022-12-18T03:53:14.002Z,9.463029
2022-12-18T03:54:13.973Z,9.462955
2022-12-18T03:55:14.131Z,9.462989
2022-12-18T03:56:13.979Z,9.463018
2022-12-18T03:57:13.981Z,9.463062
2022-12-18T03:58:13.996Z,9.463045
2022-12-18T03:59:13.970Z,9.463024
2022-12-18T04:00:13.973Z,9.463039
2022-12-18T04:01:14.089Z,9.463044
2022-12-18T04:02:14.160Z,9.463028
2022-12-18T04:03:13.972Z,9.463017
2022-12-18T04:04:14.177Z,9.463041
2022-12-18T04:05:13.946Z,9.463048
2022-12-18T04:06:13.934Z,9.463029
2022-12-18T04:07:13.943Z,9.463027
2022-12-18T04:08:13.949Z,9.463058
2022-12-18T04:09:13.906Z,9.463033
2022-12-18T04:10:13.913Z,9.463044
2022-12-18T04:11:13.905Z,9.463018
2022-12-18T04:12:13.878Z,9.462985
2022-12-18T04:13:13.895Z,9.462977
2022-12-18T04:14:17.597Z,9.463001
2022-12-18T04:15:13.869Z,9.463043
2022-12-18T04:16:13.892Z,9.463015
2022-12-18T04:17:13.953Z,9.463005
2022-12-18T04:18:13.862Z,9.463012
2022-12-18T04:19:13.875Z,9.463002
2022-12-18T04:20:13.987Z,9.462970
2022-12-18T04:21:13.837Z,9.462968
2022-12-18T04:22:18.491Z,9.462998
2022-12-18T04:23:15.487Z,9.462940
2022-12-18T04:24:13.812Z,9.462963
2022-12-18T04:25:13.837Z,9.462937
2022-12-18T04:26:13.796Z,9.462958
2022-12-18T04:27:13.816Z,9.462990
2022-12-18T04:28:13.808Z,9.462996
2022-12-18T04:29:13.791Z,9.463024
2022-12-18T04:30:13.795Z,9.462913
2022-12-18T04:31:13.890Z,9.462951
2022-12-18T04:32:35.309Z,9.462921
2022-12-18T04:33:13.761Z,9.463007
2022-12-18T04:34:13.781Z,9.462984
2022-12-18T04:35:13.776Z,9.462987
2022-12-18T04:36:13.878Z,9.462951
2022-12-18T04:37:16.996Z,9.462911
2022-12-18T04:38:13.753Z,9.462940
2022-12-18T04:39:13.755Z,9.462918
2022-12-18T04:40:13.743Z,9.462979
2022-12-18T04:41:13.726Z,9.462959
2022-12-18T04:42:13.736Z,9.462960
2022-12-18T04:43:13.773Z,9.462972
2022-12-18T04:44:13.735Z,9.462956
2022-12-18T04:45:13.694Z,9.462950
2022-12-18T04:46:13.743Z,9.462968
2022-12-18T04:47:13.697Z,9.462937
2022-12-18T04:48:13.684Z,9.462988
2022-12-18T04:49:13.990Z,9.463001
2022-12-18T04:50:13.709Z,9.463004
2022-12-18T04:51:13.664Z,9.462958
2022-12-18T04:52:13.806Z,9.462984
2022-12-18T04:53:13.665Z,9.462992
2022-12-18T04:54:13.674Z,9.462945
2022-12-18T04:55:13.662Z,9.462974
2022-12-18T04:56:13.662Z,9.462951
2022-12-18T04:57:13.642Z,9.462945
2022-12-18T04:58:13.635Z,9.462981
2022-12-18T04:59:13.617Z,9.463036
2022-12-18T05:00:13.643Z,9.462994
2022-12-18T05:01:13.666Z,9.462961
2022-12-18T05:02:13.799Z,9.462970
2022-12-18T05:03:13.658Z,9.462952
2022-12-18T05:04:13.836Z,9.463043
2022-12-18T05:05:13.603Z,9.462955
2022-12-18T05:06:13.611Z,9.463011
2022-12-18T05:07:13.594Z,9.462986
2022-12-18T05:08:13.811Z,9.463062
2022-12-18T05:09:13.582Z,9.462967
2022-12-18T05:10:13.595Z,9.462937
2022-12-18T05:11:13.572Z,9.462983
2022-12-18T05:12:13.574Z,9.463002
2022-12-18T05:13:13.547Z,9.462956
2022-12-18T05:14:14.342Z,9.463020
2022-12-18T05:15:13.573Z,9.462988
2022-12-18T05:16:13.605Z,9.463008
2022-12-18T05:17:13.531Z,9.463024
2022-12-18T05:18:13.545Z,9.463017
2022-12-18T05:19:13.559Z,9.463035
2022-12-18T05:20:13.546Z,9.463057
2022-12-18T05:21:13.515Z,9.463064
2022-12-18T05:22:13.521Z,9.463056
2022-12-18T05:23:13.498Z,9.463034
2022-12-18T05:24:13.623Z,9.463022
2022-12-18T05:25:13.484Z,9.463055
2022-12-18T05:26:13.525Z,9.463074
2022-12-18T05:27:13.485Z,9.463082
2022-12-18T05:28:13.481Z,9.463052
2022-12-18T05:29:13.483Z,9.463001
2022-12-18T05:30:13.463Z,9.463017
2022-12-18T05:31:13.566Z,9.462995
2022-12-18T05:32:13.486Z,9.462997
2022-12-18T05:33:13.461Z,9.462967
2022-12-18T05:34:13.439Z,9.463039
2022-12-18T05:35:13.439Z,9.463024
2022-12-18T05:36:13.430Z,9.463019
2022-12-18T05:37:13.434Z,9.462989
2022-12-18T05:44:39.773Z,9.463078
2022-12-18T05:45:39.783Z,9.462979
2022-12-18T05:46:39.832Z,9.462986
2022-12-18T05:47:39.759Z,9.463001
2022-12-18T05:48:39.775Z,9.463009
2022-12-18T05:49:39.753Z,9.463031
2022-12-18T05:50:39.743Z,9.463010
2022-12-18T05:51:39.744Z,9.463044
2022-12-18T05:52:39.722Z,9.462996
2022-12-18T05:53:40.351Z,9.462996
2022-12-18T05:54:39.740Z,9.462998
2022-12-18T05:55:39.834Z,9.463025
2022-12-18T05:56:42.958Z,9.462976
2022-12-18T05:57:40.701Z,9.462963
2022-12-18T05:58:39.690Z,9.463034
2022-12-18T05:59:39.728Z,9.463024
2022-12-18T06:00:39.686Z,9.463029
2022-12-18T06:01:39.875Z,9.463097
2022-12-18T06:02:39.817Z,9.462947
2022-12-18T06:03:40.421Z,9.463116
2022-12-18T06:04:39.678Z,9.462959
2022-12-18T06:05:39.664Z,9.463026
2022-12-18T06:07:03.497Z,9.462996
2022-12-18T06:07:39.649Z,9.462928
2022-12-18T06:08:45.860Z,9.463022
2022-12-18T06:09:39.632Z,9.463025
2022-12-18T06:10:39.678Z,9.462999
2022-12-18T06:11:39.754Z,9.463040
2022-12-18T06:12:39.642Z,9.463103
2022-12-18T06:13:40.039Z,9.463023
2022-12-18T06:14:39.627Z,9.462847
2022-12-18T06:15:39.608Z,9.463004
2022-12-18T06:16:39.627Z,9.463048
2022-12-18T06:17:39.656Z,9.463101
2022-12-18T06:18:39.605Z,9.463065
2022-12-18T06:19:39.589Z,9.462978
2022-12-18T06:20:39.593Z,9.463005
2022-12-18T06:21:39.576Z,9.462968
2022-12-18T06:22:39.568Z,9.462974
2022-12-18T06:23:39.972Z,9.462963
2022-12-18T06:24:39.585Z,9.462972
2022-12-18T06:25:39.565Z,9.462984
2022-12-18T06:26:39.546Z,9.462924
2022-12-18T06:27:39.684Z,9.462924
2022-12-18T06:28:39.543Z,9.462973
2022-12-18T06:29:39.539Z,9.462944
2022-12-18T06:30:39.550Z,9.462937
2022-12-18T06:31:39.591Z,9.463006
2022-12-18T06:32:39.529Z,9.462957
2022-12-18T06:33:39.942Z,9.462834
2022-12-18T06:34:39.505Z,9.462854
2022-12-18T06:35:39.527Z,9.462862
2022-12-18T06:36:39.517Z,9.462947
2022-12-18T06:37:39.479Z,9.463005
2022-12-18T06:38:39.799Z,9.462913
2022-12-18T06:39:39.483Z,9.462980
2022-12-18T06:40:39.473Z,9.462887
2022-12-18T06:41:39.487Z,9.463126
2022-12-18T06:42:46.634Z,9.463030
2022-12-18T06:43:39.744Z,9.463219
2022-12-18T06:44:39.493Z,9.463313
2022-12-18T06:45:39.503Z,9.463225
2022-12-18T06:46:39.441Z,9.463121
2022-12-18T06:47:39.439Z,9.463069
2022-12-18T06:48:39.451Z,9.463119
2022-12-18T06:49:54.003Z,9.463048
2022-12-18T06:50:39.490Z,9.463018
2022-12-18T06:51:39.427Z,9.462927
2022-12-18T06:52:39.420Z,9.462980
2022-12-18T06:53:39.752Z,9.462978
2022-12-18T06:54:39.493Z,9.463037
2022-12-18T06:55:39.380Z,9.463067
2022-12-18T06:56:50.213Z,9.463052
2022-12-18T06:57:39.371Z,9.463103
2022-12-18T06:58:39.514Z,9.463051
2022-12-18T06:59:39.399Z,9.462971
2022-12-18T07:00:39.699Z,9.462980
2022-12-18T07:01:39.602Z,9.463008
2022-12-18T07:02:39.537Z,9.463031
2022-12-18T07:03:39.721Z,9.462996
2022-12-18T07:04:39.777Z,9.463057
2022-12-18T07:05:39.329Z,9.463047
2022-12-18T07:06:39.340Z,9.463030
2022-12-18T07:07:39.329Z,9.462972
2022-12-18T07:08:39.322Z,9.463069
2022-12-18T07:09:39.322Z,9.463053
2022-12-18T07:10:44.751Z,9.462991
2022-12-18T07:11:40.307Z,9.463038
2022-12-18T07:12:39.302Z,9.463024
2022-12-18T07:13:39.861Z,9.463016
2022-12-18T07:14:39.412Z,9.463033
2022-12-18T07:16:26.193Z,9.463016
2022-12-18T07:16:39.286Z,9.463002
2022-12-18T07:17:39.286Z,9.463004
2022-12-18T07:18:39.274Z,9.462992
2022-12-18T07:19:39.284Z,9.462942
2022-12-18T07:20:39.273Z,9.462964
2022-12-18T07:21:39.266Z,9.462941
2022-12-18T07:22:39.249Z,9.462909
2022-12-18T07:23:39.652Z,9.462961
2022-12-18T07:24:39.241Z,9.462953
2022-12-18T07:25:39.240Z,9.462974
2022-12-18T07:26:39.238Z,9.463015
2022-12-18T07:27:39.257Z,9.463041
2022-12-18T07:28:39.224Z,9.463069
2022-12-18T07:29:39.228Z,9.463044
2022-12-18T07:30:39.353Z,9.463068
2022-12-18T07:31:39.279Z,9.463059
2022-12-18T07:32:39.207Z,9.463045
2022-12-18T07:33:39.642Z,9.463038
2022-12-18T07:34:39.297Z,9.463041
2022-12-18T07:35:39.200Z,9.463035
2022-12-18T07:36:39.169Z,9.463014
2022-12-18T07:37:39.196Z,9.463019
2022-12-18T07:38:39.172Z,9.463037
2022-12-18T07:39:39.167Z,9.463028
2022-12-18T07:40:39.150Z,9.463047
2022-12-18T07:41:42.471Z,9.463021
2022-12-18T07:42:39.162Z,9.463066
2022-12-18T07:43:39.533Z,9.463052
2022-12-18T07:44:39.160Z,9.463038
2022-12-18T07:45:39.194Z,9.463044
2022-12-18T07:46:39.241Z,9.462995
2022-12-18T07:47:39.155Z,9.463071
2022-12-18T07:48:39.176Z,9.463071
2022-12-18T07:49:39.137Z,9.463033
2022-12-18T07:50:39.557Z,9.463019
2022-12-18T07:51:39.104Z,9.462996
2022-12-18T07:52:39.120Z,9.462959
2022-12-18T07:53:39.573Z,9.462893
2022-12-18T07:54:39.092Z,9.462975
2022-12-18T07:56:05.404Z,9.463024
2022-12-18T07:56:40.068Z,9.462994
2022-12-18T07:57:50.505Z,9.463041
2022-12-18T07:58:40.068Z,9.463036
2022-12-18T07:59:39.062Z,9.462974
2022-12-18T08:00:39.060Z,9.462982
2022-12-18T08:01:39.504Z,9.462974
2022-12-18T08:02:39.302Z,9.462944
2022-12-18T08:03:39.363Z,9.462961
2022-12-18T08:04:39.033Z,9.462940
2022-12-18T08:05:39.046Z,9.462935
2022-12-18T08:06:40.242Z,9.462942
2022-12-18T08:07:39.021Z,9.462997
2022-12-18T08:08:39.044Z,9.462981
2022-12-18T08:09:39.050Z,9.462968
2022-12-18T08:10:38.999Z,9.462941
2022-12-18T08:11:39.028Z,9.462933
2022-12-18T08:12:38.999Z,9.462966
2022-12-18T08:13:39.489Z,9.462916
2022-12-18T08:14:38.979Z,9.462953
2022-12-18T08:15:39.067Z,9.462982
2022-12-18T08:16:39.066Z,9.462955
2022-12-18T08:17:38.979Z,9.462915
2022-12-18T08:18:39.090Z,9.462867
2022-12-18T08:19:38.960Z,9.462887
2022-12-18T08:20:38.960Z,9.462876
2022-12-18T08:21:38.948Z,9.462911
2022-12-18T08:22:38.947Z,9.462884
2022-12-18T08:23:42.540Z,9.462873
2022-12-18T08:24:38.924Z,9.462979
2022-12-18T08:25:38.938Z,9.462940
2022-12-18T08:26:38.936Z,9.462938
2022-12-18T08:27:38.919Z,9.462858
2022-12-18T08:28:38.917Z,9.462881
2022-12-18T08:29:38.919Z,9.462854
2022-12-18T08:30:38.931Z,9.462842
2022-12-18T08:31:38.948Z,9.462923
2022-12-18T08:32:38.894Z,9.462940
2022-12-18T08:33:39.415Z,9.462944
2022-12-18T08:34:39.012Z,9.462949
2022-12-18T08:35:45.473Z,9.462962
2022-12-18T08:36:39.868Z,9.462936
2022-12-18T08:37:38.883Z,9.462945
2022-12-18T08:38:38.865Z,9.462942
2022-12-18T08:39:38.877Z,9.462883
2022-12-18T08:40:38.865Z,9.462925
2022-12-18T08:41:38.850Z,9.462937
2022-12-18T08:42:39.357Z,9.462986
2022-12-18T08:43:39.256Z,9.462960
2022-12-18T08:44:38.841Z,9.462954
2022-12-18T08:45:38.886Z,9.462942
2022-12-18T08:46:38.882Z,9.462981
2022-12-18T08:47:38.852Z,9.462972
2022-12-18T08:48:38.821Z,9.462961
2022-12-18T08:49:38.826Z,9.462974
2022-12-18T08:50:38.929Z,9.462967
2022-12-18T08:51:38.804Z,9.462944
2022-12-18T08:52:40.515Z,9.462930
2022-12-18T08:53:39.264Z,9.462955
2022-12-18T08:54:39.814Z,9.462985
2022-12-18T08:55:38.787Z,9.462984
2022-12-18T08:56:38.752Z,9.462982
2022-12-18T08:57:38.769Z,9.462975
2022-12-18T08:58:38.753Z,9.462976
2022-12-18T08:59:38.746Z,9.462989
2022-12-18T09:00:38.750Z,9.462984
2022-12-18T09:01:38.793Z,9.462977
2022-12-18T09:02:38.911Z,9.462948
2022-12-18T09:03:39.245Z,9.463297
2022-12-18T09:04:38.703Z,9.462924
2022-12-18T09:05:38.725Z,9.463041
2022-12-18T09:06:38.833Z,9.462869
2022-12-18T09:07:38.693Z,9.462919
2022-12-18T09:08:39.333Z,9.462962
2022-12-18T09:09:38.675Z,9.462950
2022-12-18T09:10:43.196Z,9.462935
2022-12-18T09:11:38.678Z,9.462975
2022-12-18T09:12:38.653Z,9.462931
2022-12-18T09:13:39.081Z,9.462995
2022-12-18T09:14:38.662Z,9.463044
2022-12-18T09:15:38.655Z,9.462996
2022-12-18T09:16:38.695Z,9.463031
2022-12-18T09:17:38.674Z,9.463078
2022-12-18T09:18:39.083Z,9.462999
2022-12-18T09:19:38.626Z,9.463017
2022-12-18T09:20:38.613Z,9.462926
2022-12-18T09:21:40.223Z,9.462984
2022-12-18T09:22:38.712Z,9.462956
2022-12-18T09:23:38.606Z,9.462901
2022-12-18T09:24:38.589Z,9.462952
2022-12-18T09:25:38.596Z,9.462959
2022-12-18T09:26:38.612Z,9.462934
2022-12-18T09:27:38.563Z,9.462971
2022-12-18T09:28:38.992Z,9.462963
2022-12-18T09:29:38.556Z,9.462950
2022-12-18T09:30:38.608Z,9.462990
2022-12-18T09:31:38.573Z,9.462940
2022-12-18T09:32:38.539Z,9.463010
2022-12-18T09:33:38.542Z,9.463026
2022-12-18T09:34:38.513Z,9.462962
2022-12-18T09:35:38.541Z,9.462988
2022-12-18T09:36:38.500Z,9.462994
2022-12-18T09:37:38.510Z,9.462974
2022-12-18T09:38:39.029Z,9.463015
2022-12-18T09:39:38.497Z,9.463002
2022-12-18T09:40:38.487Z,9.463017
2022-12-18T09:41:38.481Z,9.462984
2022-12-18T09:42:38.458Z,9.463033
2022-12-18T09:43:38.447Z,9.462976
2022-12-18T09:44:44.786Z,9.462988
2022-12-18T09:45:39.449Z,9.463022
2022-12-18T09:46:38.614Z,9.462986
2022-12-18T09:47:38.422Z,9.463029
2022-12-18T09:48:38.862Z,9.462981
2022-12-18T09:49:38.470Z,9.462964
2022-12-18T09:50:38.421Z,9.463026
2022-12-18T09:51:38.421Z,9.462974
2022-12-18T09:52:38.408Z,9.463016
2022-12-18T09:53:38.394Z,9.463039
2022-12-18T09:54:38.557Z,9.462975
2022-12-18T09:55:38.393Z,9.462997
2022-12-18T09:56:38.401Z,9.463002
2022-12-18T09:57:38.387Z,9.462993
2022-12-18T09:58:38.785Z,9.462920
2022-12-18T09:59:38.392Z,9.462907
2022-12-18T10:00:38.366Z,9.462844
2022-12-18T10:01:44.133Z,9.462918
2022-12-18T10:02:39.590Z,9.463017
2022-12-18T10:03:38.398Z,9.463272
2022-12-18T10:04:38.402Z,9.463256
2022-12-18T10:05:38.347Z,9.463209
2022-12-18T10:06:38.338Z,9.463035
2022-12-18T10:07:38.336Z,9.462950
2022-12-18T10:08:38.797Z,9.462986
2022-12-18T10:09:38.344Z,9.462973
2022-12-18T10:10:38.452Z,9.463095
2022-12-18T10:11:38.323Z,9.463136
2022-12-18T10:12:38.545Z,9.463067
2022-12-18T10:13:38.290Z,9.463007
2022-12-18T10:14:38.297Z,9.463056
2022-12-18T10:15:38.383Z,9.463076
2022-12-18T10:16:38.291Z,9.463070
2022-12-18T10:17:38.323Z,9.463039
2022-12-18T10:18:38.552Z,9.462998
2022-12-18T10:19:38.264Z,9.462965
2022-12-18T10:20:38.269Z,9.463006
2022-12-18T10:21:38.261Z,9.463004
2022-12-18T10:22:38.234Z,9.463014
2022-12-18T10:23:39.172Z,9.463020
2022-12-18T10:24:38.226Z,9.463031
2022-12-18T10:25:38.220Z,9.463029
2022-12-18T10:26:38.345Z,9.463077
2022-12-18T10:27:38.213Z,9.463052
2022-12-18T10:28:38.586Z,9.463037
2022-12-18T10:29:38.213Z,9.463032
2022-12-18T10:30:38.692Z,9.463008
2022-12-18T10:31:38.263Z,9.462998
2022-12-18T10:32:38.197Z,9.463016
2022-12-18T10:33:38.532Z,9.463034
2022-12-18T10:34:38.168Z,9.463043
2022-12-18T10:35:38.173Z,9.463038
2022-12-18T10:36:38.267Z,9.463016
2022-12-18T10:37:38.181Z,9.463017
2022-12-18T10:38:38.428Z,9.463030
2022-12-18T10:39:38.137Z,9.463038
2022-12-18T10:40:38.134Z,9.463009
2022-12-18T10:41:38.138Z,9.463009
2022-12-18T10:42:38.222Z,9.463012
2022-12-18T10:43:38.136Z,9.462974
2022-12-18T10:44:38.103Z,9.462996
2022-12-18T10:45:38.111Z,9.462999
2022-12-18T10:46:38.183Z,9.463012
2022-12-18T10:52:05.480Z,9.463051
2022-12-18T10:53:04.453Z,9.463007
2022-12-18T10:54:04.534Z,9.463001
2022-12-18T10:55:04.512Z,9.463009
2022-12-18T10:56:04.441Z,9.463023
2022-12-18T10:57:04.442Z,9.463028
2022-12-18T10:58:04.555Z,9.463033
2022-12-18T10:59:04.416Z,9.463055
2022-12-18T11:06:30.800Z,9.463057
2022-12-18T11:07:30.789Z,9.463103
2022-12-18T11:08:30.811Z,9.463091
2022-12-18T11:09:30.817Z,9.463022
2022-12-18T11:10:30.759Z,9.462949
2022-12-18T11:11:30.779Z,9.463073
2022-12-18T11:12:30.805Z,9.463026
2022-12-18T11:13:30.891Z,9.463051
2022-12-18T11:14:30.761Z,9.463008
2022-12-18T11:15:30.766Z,9.463018
2022-12-18T11:16:30.796Z,9.462998
2022-12-18T11:17:30.777Z,9.462998
2022-12-18T11:18:30.732Z,9.462966
2022-12-18T11:19:30.737Z,9.462996
2022-12-18T11:20:30.732Z,9.462934
2022-12-18T11:21:30.716Z,9.462951
2022-12-18T11:22:30.691Z,9.462971
2022-12-18T11:23:30.719Z,9.462971
2022-12-18T11:24:30.676Z,9.463055
2022-12-18T11:25:33.355Z,9.462960
2022-12-18T11:26:30.780Z,9.463207
2022-12-18T11:27:30.683Z,9.463437
2022-12-18T11:28:30.664Z,9.463111
2022-12-18T11:29:30.773Z,9.463031
2022-12-18T11:30:30.662Z,9.463046
2022-12-18T11:31:30.696Z,9.463231
2022-12-18T11:32:30.681Z,9.463099
2022-12-18T11:33:30.650Z,9.463033
2022-12-18T11:34:30.894Z,9.463017
2022-12-18T11:35:30.635Z,9.462985
2022-12-18T11:36:30.609Z,9.462932
2022-12-18T11:37:30.632Z,9.462936
2022-12-18T11:38:30.625Z,9.462981
2022-12-18T11:39:30.609Z,9.463168
2022-12-18T11:40:30.638Z,9.463183
2022-12-18T11:41:30.611Z,9.462935
2022-12-18T11:42:30.643Z,9.463001
2022-12-18T11:43:30.594Z,9.463009
2022-12-18T11:44:30.649Z,9.463053
2022-12-18T11:45:30.730Z,9.462970
2022-12-18T11:46:30.664Z,9.462998
2022-12-18T11:47:30.629Z,9.462864
2022-12-18T11:48:30.572Z,9.462609
2022-12-18T11:49:30.629Z,9.462672
2022-12-18T11:50:30.687Z,9.462760
2022-12-18T11:51:30.596Z,9.462655
2022-12-18T11:52:30.576Z,9.462660
2022-12-18T11:53:31.025Z,9.462789
2022-12-18T11:54:30.556Z,9.462763
2022-12-18T11:55:30.566Z,9.462853
2022-12-18T11:56:30.655Z,9.462885
2022-12-18T11:57:30.546Z,9.462921
2022-12-18T11:58:31.682Z,9.462889
2022-12-18T11:59:30.701Z,9.462882
2022-12-18T12:00:30.503Z,9.462738
2022-12-18T12:01:45.308Z,9.462905
2022-12-18T12:02:30.695Z,9.462777
2022-12-18T12:03:30.600Z,9.462996
2022-12-18T12:04:30.534Z,9.462927
2022-12-18T12:05:30.474Z,9.462911
2022-12-18T12:06:30.489Z,9.462938
2022-12-18T12:07:30.489Z,9.462797
2022-12-18T12:08:30.452Z,9.462907
2022-12-18T12:09:30.467Z,9.463081
2022-12-18T12:10:30.431Z,9.463004
2022-12-18T12:11:30.483Z,9.463050
2022-12-18T12:12:30.417Z,9.463105
2022-12-18T12:13:30.442Z,9.462898
2022-12-18T12:15:13.189Z,9.462886
2022-12-18T12:15:51.495Z,9.462954